Time;durP1;ratioP1;P1;durP2;ratioP2;P2;SDS_P1;SDS_P2;PMS_P1;PMS_P2;Temp;Humidity;BMP_temperature;BMP_pressure;BME280_temperature;BME280_humidity;BME280_pressure;Samples;Min_cycle;Max_cycle;Signal;HPM_P1;HPM_P2
2023/03/31 00:01:07;;;;;;;0.20;0.20;;;;;;;;;;4822790;29;20550;-80
2023/03/31 00:06:28;;;;;;;0.20;0.20;;;;;;;;;;4821863;29;20070;-80
2023/03/31 00:08:54;;;;;;;0.10;0.10;;;;;;;;;;4833753;24;20087;-79
2023/03/31 00:11:20;;;;;;;0.10;0.10;;;;;;;;;;4811691;29;20066;-80
2023/03/31 00:13:47;;;;;;;0.13;0.13;;;;;;;;;;4842989;29;20137;-80
2023/03/31 00:16:13;;;;;;;0.10;0.10;;;;;;;;;;4827715;29;20089;-80
2023/03/31 00:18:46;;;;;;;0.17;0.17;;;;;;;;;;4834022;29;20048;-80
2023/03/31 00:21:13;;;;;;;0.20;0.20;;;;;;;;;;4856750;29;20046;-78
2023/03/31 00:23:40;;;;;;;0.20;0.20;;;;;;;;;;4835311;29;20102;-80
2023/03/31 00:26:06;;;;;;;0.10;0.10;;;;;;;;;;4839344;29;20046;-80
2023/03/31 00:28:32;;;;;;;0.20;0.20;;;;;;;;;;4826337;29;20038;-80
2023/03/31 00:31:02;;;;;;;0.20;0.20;;;;;;;;;;4818845;29;20050;-80
2023/03/31 00:33:28;;;;;;;0.20;0.20;;;;;;;;;;4837029;29;20586;-79
2023/03/31 00:35:54;;;;;;;0.10;0.10;;;;;;;;;;4822480;29;20065;-80
2023/03/31 00:38:20;;;;;;;0.20;0.20;;;;;;;;;;4839957;29;20046;-80
2023/03/31 00:40:47;;;;;;;0.10;0.10;;;;;;;;;;4827841;29;20542;-80
2023/03/31 00:43:26;;;;;;;0.15;0.15;;;;;;;;;;4829616;29;20041;-80
2023/03/31 00:46:00;;;;;;;0.10;0.10;;;;;;;;;;4859203;29;20128;-79
2023/03/31 00:48:26;;;;;;;0.13;0.13;;;;;;;;;;4828719;29;20085;-80
2023/03/31 00:50:57;;;;;;;0.10;0.10;;;;;;;;;;4823476;29;20046;-80
2023/03/31 00:53:30;;;;;;;0.20;0.20;;;;;;;;;;4839795;29;20049;-80
2023/03/31 00:55:58;;;;;;;0.10;0.10;;;;;;;;;;4839943;29;20049;-80
2023/03/31 00:58:27;;;;;;;0.10;0.10;;;;;;;;;;4856576;29;20120;-80
2023/03/31 01:00:55;;;;;;;0.10;0.10;;;;;;;;;;4844282;29;20112;-80
2023/03/31 01:03:21;;;;;;;0.13;0.13;;;;;;;;;;4862309;29;20051;-79
2023/03/31 01:06:04;;;;;;;0.20;0.20;;;;;;;;;;4911703;24;20081;-79
2023/03/31 01:08:30;;;;;;;0.10;0.10;;;;;;;;;;4827307;29;20054;-78
2023/03/31 01:10:58;;;;;;;0.20;0.20;;;;;;;;;;4851484;29;20062;-79
2023/03/31 01:13:25;;;;;;;0.13;0.13;;;;;;;;;;4821463;29;20053;-79
2023/03/31 01:15:51;;;;;;;0.20;0.20;;;;;;;;;;4809939;29;20105;-80
2023/03/31 01:18:20;;;;;;;0.10;0.10;;;;;;;;;;4839474;29;20053;-79
2023/03/31 01:20:52;;;;;;;0.10;0.10;;;;;;;;;;4821064;29;20045;-80
2023/03/31 01:23:26;;;;;;;0.10;0.10;;;;;;;;;;4829776;29;20053;-80
2023/03/31 01:26:07;;;;;;;0.13;0.13;;;;;;;;;;4842417;29;20108;-79
2023/03/31 01:28:45;;;;;;;0.10;0.10;;;;;;;;;;4820701;29;20085;-79
2023/03/31 01:31:30;;;;;;;0.20;0.20;;;;;;;;;;4837958;29;20057;-80
2023/03/31 01:34:12;;;;;;;0.20;0.20;;;;;;;;;;4821020;29;20070;-79
2023/03/31 01:36:48;;;;;;;0.20;0.20;;;;;;;;;;4838985;29;20054;-79
2023/03/31 01:39:29;;;;;;;0.10;0.10;;;;;;;;;;4820786;29;20416;-80
2023/03/31 01:41:55;;;;;;;;;;;;;;;;;;4832274;29;20083;-81
2023/03/31 01:50:52;;;;;;;0.15;0.15;;;;;;;;;;4866059;24;20250;-80
2023/03/31 01:53:41;;;;;;;0.10;0.10;;;;;;;;;;4834918;29;20052;-81
2023/03/31 01:56:11;;;;;;;0.20;0.20;;;;;;;;;;4819105;29;20444;-80
2023/03/31 01:58:39;;;;;;;0.13;0.13;;;;;;;;;;4838881;29;20045;-80
2023/03/31 02:01:09;;;;;;;0.20;0.20;;;;;;;;;;4848765;29;20042;-81
2023/03/31 02:03:40;;;;;;;0.10;0.10;;;;;;;;;;4912617;24;20096;-80
2023/03/31 02:06:18;;;;;;;0.10;0.10;;;;;;;;;;4844452;29;20069;-79
2023/03/31 02:08:54;;;;;;;0.10;0.10;;;;;;;;;;4860363;29;20053;-79
2023/03/31 02:11:21;;;;;;;0.15;0.15;;;;;;;;;;4842662;29;20061;-80
2023/03/31 02:13:48;;;;;;;0.10;0.10;;;;;;;;;;4843919;29;20077;-79
2023/03/31 02:16:20;;;;;;;0.10;0.10;;;;;;;;;;4842269;29;20085;-80
2023/03/31 02:18:48;;;;;;;0.20;0.20;;;;;;;;;;4844314;29;20049;-79
2023/03/31 02:21:15;;;;;;;0.20;0.20;;;;;;;;;;4843647;29;20498;-79
2023/03/31 02:23:42;;;;;;;0.20;0.20;;;;;;;;;;4875286;29;20077;-78
2023/03/31 02:26:11;;;;;;;0.10;0.10;;;;;;;;;;4844173;29;20049;-79
2023/03/31 02:28:51;;;;;;;0.10;0.10;;;;;;;;;;4834301;23;20082;-80
2023/03/31 02:31:27;;;;;;;0.20;0.20;;;;;;;;;;4841953;29;20057;-80
2023/03/31 02:34:05;;;;;;;0.10;0.10;;;;;;;;;;4843267;29;20487;-80
2023/03/31 02:36:37;;;;;;;0.10;0.10;;;;;;;;;;4823632;29;20042;-80
2023/03/31 02:39:24;;;;;;;0.20;0.20;;;;;;;;;;4841301;29;20062;-80
2023/03/31 02:41:50;;;;;;;0.20;0.20;;;;;;;;;;4841594;29;20069;-79
2023/03/31 02:44:53;;;;;;;0.20;0.20;;;;;;;;;;4826311;29;20443;-80
2023/03/31 02:47:21;;;;;;;0.15;0.15;;;;;;;;;;4839608;29;20050;-80
2023/03/31 02:49:56;;;;;;;0.20;0.20;;;;;;;;;;4787024;29;20083;-80
2023/03/31 02:52:28;;;;;;;0.10;0.10;;;;;;;;;;4794238;30;20061;-77
2023/03/31 02:55:00;;;;;;;0.20;0.20;;;;;;;;;;4782475;30;20094;-79
2023/03/31 02:57:38;;;;;;;0.15;0.15;;;;;;;;;;4784372;29;20548;-79
2023/03/31 03:00:07;;;;;;;0.13;0.13;;;;;;;;;;4782494;29;20141;-79
2023/03/31 03:02:51;;;;;;;0.13;0.13;;;;;;;;;;4783131;29;20051;-78
2023/03/31 03:05:27;;;;;;;0.10;0.10;;;;;;;;;;4787308;29;20107;-78
2023/03/31 03:07:53;;;;;;;0.20;0.20;;;;;;;;;;4783913;29;20098;-80
2023/03/31 03:10:19;;;;;;;0.20;0.20;;;;;;;;;;4777347;30;20477;-79
2023/03/31 03:12:52;;;;;;;0.10;0.10;;;;;;;;;;4767638;30;20043;-79
2023/03/31 03:15:22;;;;;;;0.10;0.10;;;;;;;;;;4783992;29;20087;-80
2023/03/31 03:17:48;;;;;;;0.10;0.10;;;;;;;;;;4775035;30;20078;-80
2023/03/31 03:20:15;;;;;;;0.10;0.10;;;;;;;;;;4796067;29;20093;-80
2023/03/31 03:22:42;;;;;;;0.20;0.20;;;;;;;;;;4822933;29;20050;-80
2023/03/31 03:27:48;;;;;;;0.20;0.20;;;;;;;;;;4836522;29;20054;-80
2023/03/31 03:30:29;;;;;;;0.10;0.10;;;;;;;;;;4843037;29;20049;-80
2023/03/31 03:32:57;;;;;;;;;;;;;;;;;;4836621;29;20740;-79
2023/03/31 03:35:54;;;;;;;0.20;0.20;;;;;;;;;;4836713;29;19924;-80
2023/03/31 03:38:20;;;;;;;0.20;0.20;;;;;;;;;;4828228;29;20659;-81
2023/03/31 03:40:55;;;;;;;0.17;0.17;;;;;;;;;;4823697;29;20105;-79
2023/03/31 03:43:24;;;;;;;0.20;0.20;;;;;;;;;;4831331;29;20054;-80
2023/03/31 03:45:56;;;;;;;0.20;0.20;;;;;;;;;;4830591;29;20553;-80
2023/03/31 03:48:38;;;;;;;0.10;0.10;;;;;;;;;;4826351;29;20050;-81
2023/03/31 03:51:07;;;;;;;0.20;0.20;;;;;;;;;;4840707;29;20104;-81
2023/03/31 03:53:36;;;;;;;0.10;0.10;;;;;;;;;;4836311;29;20053;-80
2023/03/31 03:56:02;;;;;;;0.20;0.20;;;;;;;;;;4840290;29;20116;-80
2023/03/31 03:58:31;;;;;;;0.10;0.10;;;;;;;;;;4846007;29;20042;-79
2023/03/31 04:01:30;;;;;;;0.20;0.20;;;;;;;;;;4839977;23;20073;-79
2023/03/31 04:04:00;;;;;;;0.20;0.20;;;;;;;;;;4820721;29;20055;-80
2023/03/31 04:06:45;;;;;;;0.20;0.20;;;;;;;;;;4811990;29;20051;-80
2023/03/31 04:09:27;;;;;;;0.10;0.10;;;;;;;;;;4816500;29;20058;-81
2023/03/31 04:12:02;;;;;;;0.10;0.10;;;;;;;;;;4798749;29;20050;-80
2023/03/31 04:14:57;;;;;;;;;;;;;;;;;;;;;
2023/03/31 04:17:49;;;;;;;0.10;0.10;;;;;;;;;;4805634;29;20065;-80
2023/03/31 04:21:11;;;;;;;0.10;0.10;;;;;;;;;;4809961;29;20057;-79
2023/03/31 04:23:41;;;;;;;0.15;0.15;;;;;;;;;;4832806;29;20031;-79
2023/03/31 04:26:53;;;;;;;0.10;0.10;;;;;;;;;;4787677;29;20422;-79
2023/03/31 04:29:32;;;;;;;0.10;0.10;;;;;;;;;;4806652;29;20043;-79
2023/03/31 04:32:08;;;;;;;0.10;0.10;;;;;;;;;;4820644;29;20054;-79
2023/03/31 04:34:45;;;;;;;0.10;0.10;;;;;;;;;;4806552;29;20058;-81
2023/03/31 04:37:38;;;;;;;0.10;0.10;;;;;;;;;;4815877;29;20137;-79
2023/03/31 04:40:08;;;;;;;0.13;0.13;;;;;;;;;;4839186;29;20053;-82
2023/03/31 04:43:18;;;;;;;0.10;0.10;;;;;;;;;;4802432;29;20042;-80
2023/03/31 04:45:44;;;;;;;0.10;0.10;;;;;;;;;;4814525;29;20054;-82
2023/03/31 04:48:10;;;;;;;0.10;0.10;;;;;;;;;;4815512;24;20054;-81
2023/03/31 04:50:42;;;;;;;0.10;0.10;;;;;;;;;;4823279;29;20109;-82
2023/03/31 04:53:11;;;;;;;0.17;0.17;;;;;;;;;;4849343;29;20052;-82
2023/03/31 04:55:52;;;;;;;0.20;0.20;;;;;;;;;;4845552;29;20042;-81
2023/03/31 04:58:25;;;;;;;0.10;0.10;;;;;;;;;;4821305;29;20054;-81
2023/03/31 05:01:00;;;;;;;0.10;0.10;;;;;;;;;;4824959;29;20057;-81
2023/03/31 05:03:51;;;;;;;0.10;0.10;;;;;;;;;;4857813;29;20058;-81
2023/03/31 05:06:39;;;;;;;0.20;0.20;;;;;;;;;;4835469;29;20077;-81
2023/03/31 05:12:06;;;;;;;0.13;0.13;;;;;;;;;;4852429;23;20057;-82
2023/03/31 05:15:06;;;;;;;0.20;0.20;;;;;;;;;;4855596;29;20132;-82
2023/03/31 05:17:37;;;;;;;0.20;0.20;;;;;;;;;;4856089;29;20055;-80
2023/03/31 05:20:22;;;;;;;0.10;0.10;;;;;;;;;;4853680;29;20050;-83
2023/03/31 05:22:54;;;;;;;0.20;0.20;;;;;;;;;;4854183;29;20234;-82
2023/03/31 05:25:35;;;;;;;0.20;0.20;;;;;;;;;;4856952;29;20053;-82
2023/03/31 05:28:01;;;;;;;;;;;;;;;;;;4858818;29;20053;-82
2023/03/31 05:30:28;;;;;;;0.10;0.10;;;;;;;;;;4853513;29;19927;-82
2023/03/31 05:33:13;;;;;;;0.10;0.10;;;;;;;;;;4857428;29;20117;-82
2023/03/31 05:35:42;;;;;;;0.20;0.20;;;;;;;;;;4871708;29;20076;-82
2023/03/31 05:38:08;;;;;;;0.10;0.10;;;;;;;;;;4858627;29;20049;-83
2023/03/31 05:41:08;;;;;;;0.10;0.10;;;;;;;;;;4859377;29;20409;-83
2023/03/31 05:43:43;;;;;;;0.10;0.10;;;;;;;;;;4864698;29;20127;-83
2023/03/31 05:46:09;;;;;;;0.20;0.20;;;;;;;;;;4874397;29;20037;-83
2023/03/31 05:48:59;;;;;;;0.13;0.13;;;;;;;;;;4862594;29;20071;-82
2023/03/31 05:51:40;;;;;;;0.15;0.15;;;;;;;;;;4847539;29;20060;-81
2023/03/31 05:56:48;;;;;;;0.10;0.10;;;;;;;;;;4860927;24;19963;-83
2023/03/31 05:59:15;;;;;;;0.10;0.10;;;;;;;;;;4840842;29;20553;-85
2023/03/31 06:18:56;;;;;;;;;;;;;;;;;;;;;
2023/03/31 06:21:35;;;;;;;0.20;0.20;;;;;;;;;;4803825;29;20050;-84
2023/03/31 06:24:19;;;;;;;0.20;0.20;;;;;;;;;;4841829;29;20059;-84
2023/03/31 06:27:07;;;;;;;0.20;0.20;;;;;;;;;;4833354;29;20050;-84
2023/03/31 06:32:10;;;;;;;0.20;0.20;;;;;;;;;;4926187;23;20103;-85
2023/03/31 06:34:39;;;;;;;0.10;0.10;;;;;;;;;;4857631;29;20081;-85
2023/03/31 06:37:05;;;;;;;0.20;0.20;;;;;;;;;;4880963;29;20143;-84
2023/03/31 06:39:31;;;;;;;0.20;0.20;;;;;;;;;;4882634;29;20067;-85
2023/03/31 06:41:57;;;;;;;0.20;0.20;;;;;;;;;;4887470;29;20048;-86
2023/03/31 06:44:26;;;;;;;0.10;0.10;;;;;;;;;;4875286;29;20053;-84
2023/03/31 06:47:08;;;;;;;0.15;0.15;;;;;;;;;;4870369;29;20128;-84
2023/03/31 06:49:34;;;;;;;0.20;0.20;;;;;;;;;;4864589;29;20061;-85
2023/03/31 06:52:03;;;;;;;0.10;0.10;;;;;;;;;;4877132;29;20065;-84
2023/03/31 06:54:29;;;;;;;0.20;0.20;;;;;;;;;;4847146;29;20096;-85
2023/03/31 06:56:57;;;;;;;0.10;0.10;;;;;;;;;;4885408;23;20041;-84
2023/03/31 06:59:29;;;;;;;0.10;0.10;;;;;;;;;;4857431;29;20060;-86
2023/03/31 07:02:14;;;;;;;0.10;0.10;;;;;;;;;;4859253;29;20045;-84
2023/03/31 07:04:40;;;;;;;0.15;0.15;;;;;;;;;;4855117;29;20030;-84
2023/03/31 07:07:25;;;;;;;0.10;0.10;;;;;;;;;;4846619;29;20049;-84
2023/03/31 07:09:51;;;;;;;0.10;0.10;;;;;;;;;;4855948;29;20121;-85
2023/03/31 07:12:38;;;;;;;0.10;0.10;;;;;;;;;;4841183;29;20076;-83
2023/03/31 07:15:13;;;;;;;0.10;0.10;;;;;;;;;;4843900;29;20046;-83
2023/03/31 07:17:40;;;;;;;0.20;0.20;;;;;;;;;;4840523;29;20090;-84
2023/03/31 07:20:19;;;;;;;0.10;0.10;;;;;;;;;;4858022;29;20097;-84
2023/03/31 07:22:57;;;;;;;0.20;0.20;;;;;;;;;;4857053;29;20045;-84
2023/03/31 07:25:24;;;;;;;0.10;0.10;;;;;;;;;;4897368;23;20058;-84
2023/03/31 07:27:50;;;;;;;0.10;0.10;;;;;;;;;;4841077;29;20055;-84
2023/03/31 07:30:17;;;;;;;0.20;0.20;;;;;;;;;;4839114;29;20074;-83
2023/03/31 07:32:46;;;;;;;0.10;0.10;;;;;;;;;;4859796;29;20363;-84
2023/03/31 07:35:12;;;;;;;0.10;0.10;;;;;;;;;;4842326;29;20045;-84
2023/03/31 07:37:40;;;;;;;0.20;0.20;;;;;;;;;;4860901;29;20077;-84
2023/03/31 07:40:06;;;;;;;0.10;0.10;;;;;;;;;;4848355;29;20061;-82
2023/03/31 07:42:33;;;;;;;0.20;0.20;;;;;;;;;;4861696;29;20045;-82
2023/03/31 07:45:00;;;;;;;0.10;0.10;;;;;;;;;;4868599;29;20033;-83
2023/03/31 07:47:26;;;;;;;0.20;0.20;;;;;;;;;;4872131;29;20041;-83
2023/03/31 07:49:52;;;;;;;0.20;0.20;;;;;;;;;;4846015;29;20045;-83
2023/03/31 07:52:19;;;;;;;0.20;0.20;;;;;;;;;;4863472;29;20041;-85
2023/03/31 07:54:45;;;;;;;0.20;0.20;;;;;;;;;;4842872;29;20076;-83
2023/03/31 07:57:12;;;;;;;0.10;0.10;;;;;;;;;;4858562;29;20053;-83
2023/03/31 07:59:39;;;;;;;0.10;0.10;;;;;;;;;;4854002;29;20046;-82
2023/03/31 08:02:05;;;;;;;0.20;0.20;;;;;;;;;;4836675;29;20064;-83
2023/03/31 08:04:31;;;;;;;0.10;0.10;;;;;;;;;;4861788;29;20033;-82
2023/03/31 08:06:57;;;;;;;0.10;0.10;;;;;;;;;;4874251;23;20057;-83
2023/03/31 08:09:25;;;;;;;0.10;0.10;;;;;;;;;;4848284;29;20070;-82
2023/03/31 08:11:51;;;;;;;0.10;0.10;;;;;;;;;;4843762;29;20057;-83
2023/03/31 08:14:17;;;;;;;0.10;0.10;;;;;;;;;;4839428;29;20080;-82
2023/03/31 08:16:48;;;;;;;0.20;0.20;;;;;;;;;;4844561;29;20061;-84
2023/03/31 08:19:33;;;;;;;0.10;0.10;;;;;;;;;;4827394;29;20062;-83
2023/03/31 08:21:59;;;;;;;0.20;0.20;;;;;;;;;;4832956;29;20095;-83
2023/03/31 08:24:30;;;;;;;0.10;0.10;;;;;;;;;;4860819;23;20067;-83
2023/03/31 08:26:56;;;;;;;0.10;0.10;;;;;;;;;;4830988;29;20050;-83
2023/03/31 08:29:31;;;;;;;0.20;0.20;;;;;;;;;;4824564;29;20050;-83
2023/03/31 08:32:12;;;;;;;0.13;0.13;;;;;;;;;;4823024;29;20089;-82
2023/03/31 08:34:46;;;;;;;0.10;0.10;;;;;;;;;;4824751;29;20053;-83
2023/03/31 08:37:12;;;;;;;0.10;0.10;;;;;;;;;;4836868;29;20049;-81
2023/03/31 08:39:47;;;;;;;0.20;0.20;;;;;;;;;;4813673;29;20101;-80
2023/03/31 08:42:21;;;;;;;0.10;0.10;;;;;;;;;;4837080;29;20062;-81
2023/03/31 08:45:09;;;;;;;0.10;0.10;;;;;;;;;;4817588;29;20045;-80
2023/03/31 08:47:36;;;;;;;0.20;0.20;;;;;;;;;;4835005;29;20058;-81
2023/03/31 08:50:14;;;;;;;0.10;0.10;;;;;;;;;;4814219;29;20046;-79
2023/03/31 08:53:37;;;;;;;0.20;0.20;;;;;;;;;;4773480;29;20148;-81
2023/03/31 08:56:10;;;;;;;0.10;0.10;;;;;;;;;;4783404;29;20055;-81
2023/03/31 08:59:02;;;;;;;0.10;0.10;;;;;;;;;;4816414;29;20060;-80
2023/03/31 09:01:54;;;;;;;0.20;0.20;;;;;;;;;;4838048;29;20054;-81
2023/03/31 09:07:08;;;;;;;0.10;0.10;;;;;;;;;;4966927;23;20028;-80
2023/03/31 09:10:06;;;;;;;0.10;0.10;;;;;;;;;;4811979;29;20669;-82
2023/03/31 09:15:57;;;;;;;0.17;0.17;;;;;;;;;;4801416;29;20069;-79
2023/03/31 09:18:26;;;;;;;0.13;0.13;;;;;;;;;;4802291;29;20471;-80
2023/03/31 09:21:11;;;;;;;0.10;0.10;;;;;;;;;;4802758;29;20046;-79
2023/03/31 09:24:13;;;;;;;0.10;0.10;;;;;;;;;;4769815;29;20483;-81
2023/03/31 09:27:06;;;;;;;0.20;0.20;;;;;;;;;;4812232;29;20304;-81
2023/03/31 09:29:50;;;;;;;0.20;0.20;;;;;;;;;;4828141;29;20052;-82
2023/03/31 09:32:18;;;;;;;0.10;0.10;;;;;;;;;;4843510;23;20057;-81
2023/03/31 09:38:02;;;;;;;0.20;0.20;;;;;;;;;;4818649;29;20057;-82
2023/03/31 09:40:45;;;;;;;0.10;0.10;;;;;;;;;;4837645;29;20045;-82
2023/03/31 09:43:53;;;;;;;0.10;0.10;;;;;;;;;;4820659;29;20506;-83
2023/03/31 09:46:40;;;;;;;0.20;0.20;;;;;;;;;;4805848;29;20135;-82
2023/03/31 09:49:17;;;;;;;0.10;0.10;;;;;;;;;;4815123;29;20081;-81
2023/03/31 09:52:27;;;;;;;0.10;0.10;;;;;;;;;;4800808;29;20644;-81
2023/03/31 09:55:06;;;;;;;0.10;0.10;;;;;;;;;;4781188;29;20180;-83
2023/03/31 09:57:48;;;;;;;0.10;0.10;;;;;;;;;;4794595;29;20059;-82
2023/03/31 10:01:05;;;;;;;0.10;0.10;;;;;;;;;;4788016;29;20061;-83
2023/03/31 10:04:01;;;;;;;0.10;0.10;;;;;;;;;;4801160;29;20177;-83
2023/03/31 10:06:27;;;;;;;0.10;0.10;;;;;;;;;;4812936;29;20137;-82
2023/03/31 10:09:07;;;;;;;0.10;0.10;;;;;;;;;;4822149;29;20052;-83
2023/03/31 10:11:53;;;;;;;0.10;0.10;;;;;;;;;;4812471;29;20054;-83
2023/03/31 10:14:27;;;;;;;0.10;0.10;;;;;;;;;;4820546;29;20053;-81
2023/03/31 10:16:54;;;;;;;0.10;0.10;;;;;;;;;;4820067;29;20050;-82
2023/03/31 10:19:36;;;;;;;0.10;0.10;;;;;;;;;;4816980;29;20058;-83
2023/03/31 10:22:04;;;;;;;0.20;0.20;;;;;;;;;;4832225;29;20415;-82
2023/03/31 10:27:54;;;;;;;0.10;0.10;;;;;;;;;;4823296;29;20125;-83
2023/03/31 10:30:22;;;;;;;0.10;0.10;;;;;;;;;;4834273;29;20369;-82
2023/03/31 10:33:23;;;;;;;0.10;0.10;;;;;;;;;;4838251;29;20129;-82
2023/03/31 10:36:18;;;;;;;0.10;0.10;;;;;;;;;;4837781;29;20527;-84
2023/03/31 10:38:48;;;;;;;0.10;0.10;;;;;;;;;;4841419;29;20046;-83
2023/03/31 10:41:32;;;;;;;0.10;0.10;;;;;;;;;;4825450;29;20054;-83
2023/03/31 10:43:59;;;;;;;0.15;0.15;;;;;;;;;;4823838;29;20056;-83
2023/03/31 10:46:43;;;;;;;0.20;0.20;;;;;;;;;;4819935;29;20285;-83
2023/03/31 10:49:26;;;;;;;0.10;0.10;;;;;;;;;;4841184;29;20045;-82
2023/03/31 10:51:53;;;;;;;0.20;0.20;;;;;;;;;;4824258;29;20053;-82
2023/03/31 10:54:31;;;;;;;0.20;0.20;;;;;;;;;;4838600;29;20515;-84
2023/03/31 10:57:00;;;;;;;0.10;0.10;;;;;;;;;;4838439;29;20073;-81
2023/03/31 10:59:45;;;;;;;0.10;0.10;;;;;;;;;;4790484;29;20049;-79
2023/03/31 11:02:17;;;;;;;0.10;0.10;;;;;;;;;;4841882;29;20050;-83
2023/03/31 11:05:04;;;;;;;0.10;0.10;;;;;;;;;;4831266;29;20041;-82
2023/03/31 11:07:47;;;;;;;0.20;0.20;;;;;;;;;;4827855;29;20049;-83
2023/03/31 11:10:32;;;;;;;0.10;0.10;;;;;;;;;;4821956;29;20471;-82
2023/03/31 11:13:10;;;;;;;0.20;0.20;;;;;;;;;;4814468;29;20559;-83
2023/03/31 11:15:41;;;;;;;0.10;0.10;;;;;;;;;;4817781;29;20050;-84
2023/03/31 11:18:20;;;;;;;0.20;0.20;;;;;;;;;;4963249;23;20050;-82
2023/03/31 11:20:49;;;;;;;0.20;0.20;;;;;;;;;;4803998;29;20054;-83
2023/03/31 11:23:34;;;;;;;0.10;0.10;;;;;;;;;;4801848;29;20499;-84
2023/03/31 11:26:03;;;;;;;0.10;0.10;;;;;;;;;;4840052;29;20109;-82
2023/03/31 11:28:29;;;;;;;0.20;0.20;;;;;;;;;;4805315;29;20145;-83
2023/03/31 11:31:01;;;;;;;0.20;0.20;;;;;;;;;;4811873;29;20079;-82
2023/03/31 11:33:30;;;;;;;;;;;;;;;;;;4825843;29;20407;-83
2023/03/31 11:36:11;;;;;;;0.10;0.10;;;;;;;;;;4811919;29;19968;-82
2023/03/31 11:38:44;;;;;;;0.10;0.10;;;;;;;;;;4820925;29;20053;-81
2023/03/31 11:41:22;;;;;;;0.20;0.20;;;;;;;;;;4803254;29;20157;-83
2023/03/31 11:43:50;;;;;;;0.10;0.10;;;;;;;;;;4825266;29;20049;-82
2023/03/31 11:46:36;;;;;;;0.17;0.17;;;;;;;;;;4817124;29;20412;-81
2023/03/31 11:49:23;;;;;;;0.10;0.10;;;;;;;;;;4799986;29;20046;-83
2023/03/31 11:52:13;;;;;;;0.13;0.13;;;;;;;;;;4799789;29;20062;-82
2023/03/31 11:54:45;;;;;;;0.10;0.10;;;;;;;;;;4822065;29;20453;-83
2023/03/31 11:57:32;;;;;;;0.10;0.10;;;;;;;;;;4835650;29;20066;-81
2023/03/31 12:00:15;;;;;;;0.10;0.10;;;;;;;;;;4840080;29;20118;-80
2023/03/31 12:03:17;;;;;;;0.20;0.20;;;;;;;;;;4831568;29;20483;-80
2023/03/31 12:05:45;;;;;;;0.20;0.20;;;;;;;;;;4784056;29;20088;-80
2023/03/31 12:08:14;;;;;;;0.20;0.20;;;;;;;;;;4814891;29;20069;-82
2023/03/31 12:10:46;;;;;;;0.13;0.13;;;;;;;;;;4806161;29;20448;-80
2023/03/31 12:13:15;;;;;;;0.10;0.10;;;;;;;;;;4821251;29;20089;-81
2023/03/31 12:15:44;;;;;;;0.20;0.20;;;;;;;;;;4822175;29;20078;-81
2023/03/31 12:18:36;;;;;;;0.20;0.20;;;;;;;;;;4820992;29;20054;-82
2023/03/31 12:21:05;;;;;;;0.10;0.10;;;;;;;;;;4814680;29;20498;-82
2023/03/31 12:23:35;;;;;;;0.17;0.17;;;;;;;;;;4814055;29;20051;-82
2023/03/31 12:26:10;;;;;;;0.17;0.17;;;;;;;;;;4822745;29;20077;-84
2023/03/31 12:28:37;;;;;;;0.20;0.20;;;;;;;;;;4825295;29;20404;-84
2023/03/31 12:31:05;;;;;;;0.10;0.10;;;;;;;;;;4825271;29;20050;-84
2023/03/31 12:33:33;;;;;;;0.20;0.20;;;;;;;;;;4808130;29;20062;-84
2023/03/31 12:35:59;;;;;;;0.10;0.10;;;;;;;;;;4823962;29;20054;-84
2023/03/31 12:38:43;;;;;;;0.10;0.10;;;;;;;;;;4824249;29;20050;-84
2023/03/31 12:41:13;;;;;;;0.10;0.10;;;;;;;;;;4840662;29;20054;-84
2023/03/31 12:43:58;;;;;;;0.20;0.20;;;;;;;;;;4809473;29;20057;-85
2023/03/31 12:46:41;;;;;;;0.10;0.10;;;;;;;;;;4811031;29;20049;-82
2023/03/31 12:49:10;;;;;;;0.20;0.20;;;;;;;;;;4831291;29;20054;-83
2023/03/31 12:51:45;;;;;;;0.10;0.10;;;;;;;;;;4817968;29;20606;-83
2023/03/31 12:54:24;;;;;;;0.10;0.10;;;;;;;;;;4841095;29;20462;-84
2023/03/31 12:57:00;;;;;;;0.17;0.17;;;;;;;;;;4809456;29;20048;-83
2023/03/31 13:06:33;;;;;;;0.10;0.10;;;;;;;;;;4817232;29;20091;-82
2023/03/31 13:09:04;;;;;;;0.20;0.20;;;;;;;;;;4812119;29;20054;-82
2023/03/31 13:11:36;;;;;;;0.10;0.10;;;;;;;;;;4818833;29;20081;-83
2023/03/31 13:14:05;;;;;;;0.15;0.15;;;;;;;;;;4817524;29;20101;-82
2023/03/31 13:16:35;;;;;;;0.10;0.10;;;;;;;;;;4853061;29;20059;-83
2023/03/31 13:19:05;;;;;;;0.10;0.10;;;;;;;;;;4831955;29;20042;-82
2023/03/31 13:21:31;;;;;;;0.10;0.10;;;;;;;;;;4823460;29;20360;-82
2023/03/31 13:24:06;;;;;;;0.13;0.13;;;;;;;;;;4811825;29;20514;-81
2023/03/31 13:26:48;;;;;;;0.10;0.10;;;;;;;;;;4799320;29;20141;-81
2023/03/31 13:29:17;;;;;;;0.20;0.20;;;;;;;;;;4827262;29;20046;-82
2023/03/31 13:32:01;;;;;;;0.10;0.10;;;;;;;;;;4807070;29;20495;-81
2023/03/31 13:34:29;;;;;;;0.20;0.20;;;;;;;;;;4830915;29;20079;-81
2023/03/31 13:37:15;;;;;;;0.20;0.20;;;;;;;;;;4813514;29;20050;-80
2023/03/31 13:39:50;;;;;;;0.20;0.20;;;;;;;;;;4815933;29;20074;-81
2023/03/31 13:42:35;;;;;;;0.20;0.20;;;;;;;;;;4827034;29;20062;-81
2023/03/31 13:45:07;;;;;;;0.10;0.10;;;;;;;;;;4820464;29;20129;-81
2023/03/31 13:47:43;;;;;;;0.10;0.10;;;;;;;;;;4831676;29;20049;-81
2023/03/31 13:50:12;;;;;;;0.10;0.10;;;;;;;;;;4804748;29;20513;-81
2023/03/31 13:52:52;;;;;;;0.20;0.20;;;;;;;;;;4809322;29;20111;-81
2023/03/31 13:55:31;;;;;;;0.10;0.10;;;;;;;;;;4829783;29;20436;-80
2023/03/31 13:58:06;;;;;;;0.10;0.10;;;;;;;;;;4803756;29;20499;-80
2023/03/31 14:00:32;;;;;;;0.10;0.10;;;;;;;;;;4838624;29;20058;-81
2023/03/31 14:03:19;;;;;;;0.10;0.10;;;;;;;;;;4821654;29;20152;-81
2023/03/31 14:05:59;;;;;;;0.20;0.20;;;;;;;;;;4808425;29;20500;-80
2023/03/31 14:08:38;;;;;;;0.20;0.20;;;;;;;;;;4813054;29;20523;-81
2023/03/31 14:11:17;;;;;;;0.10;0.10;;;;;;;;;;4813154;29;20057;-81
2023/03/31 14:13:46;;;;;;;0.15;0.15;;;;;;;;;;4814441;29;20053;-81
2023/03/31 14:16:13;;;;;;;0.10;0.10;;;;;;;;;;4811770;29;20430;-82
2023/03/31 14:18:43;;;;;;;0.10;0.10;;;;;;;;;;4821140;29;20061;-81
2023/03/31 14:21:20;;;;;;;0.20;0.20;;;;;;;;;;4824633;29;20380;-80
2023/03/31 14:23:52;;;;;;;0.20;0.20;;;;;;;;;;4811466;29;20106;-80
2023/03/31 14:26:37;;;;;;;0.15;0.15;;;;;;;;;;4828686;29;20859;-81
2023/03/31 14:29:03;;;;;;;0.10;0.10;;;;;;;;;;4818674;29;20050;-82
2023/03/31 14:31:37;;;;;;;0.20;0.20;;;;;;;;;;4830411;29;20140;-81
2023/03/31 14:34:29;;;;;;;0.10;0.10;;;;;;;;;;4815611;29;20102;-81
2023/03/31 14:36:59;;;;;;;0.20;0.20;;;;;;;;;;4812961;29;20058;-81
2023/03/31 14:39:28;;;;;;;0.10;0.10;;;;;;;;;;4824088;29;20046;-81
2023/03/31 14:41:58;;;;;;;0.10;0.10;;;;;;;;;;4808123;29;20061;-80
2023/03/31 14:46:55;;;;;;;0.10;0.10;;;;;;;;;;4842488;24;20057;-80
2023/03/31 14:49:42;;;;;;;0.15;0.15;;;;;;;;;;4823940;29;20472;-77
2023/03/31 14:52:18;;;;;;;0.10;0.10;;;;;;;;;;4816727;29;20050;-83
2023/03/31 14:54:46;;;;;;;0.13;0.13;;;;;;;;;;4824080;29;21748;-81
2023/03/31 14:57:20;;;;;;;0.10;0.10;;;;;;;;;;4836369;29;20294;-78
2023/03/31 14:59:52;;;;;;;0.10;0.10;;;15.70;99.90;;;;;;4831271;29;20046;-80
2023/03/31 15:02:45;;;;;;;0.20;0.20;;;17.10;99.90;;;;;;4842561;29;20081;-80
2023/03/31 15:05:31;;;;;;;0.20;0.20;;;;;;;;;;4854644;29;20432;-81
2023/03/31 15:08:05;;;;;;;0.10;0.10;;;;;;;;;;4825866;29;20053;-81
2023/03/31 15:10:50;;;;;;;0.20;0.20;;;;;;;;;;4841403;29;20041;-83
2023/03/31 15:13:25;;;;;;;0.10;0.10;;;;;;;;;;4824150;29;20190;-80
2023/03/31 15:15:54;;;;;;;0.20;0.20;;;;;;;;;;4825371;29;20093;-81
2023/03/31 15:18:37;;;;;;;0.20;0.20;;;;;;;;;;4822377;29;20097;-81
2023/03/31 15:21:42;;;;;;;0.10;0.10;;;;;;;;;;4842456;29;20057;-82
2023/03/31 15:27:15;;;;;;;0.10;0.10;;;;;;;;;;4826500;29;20050;-81
2023/03/31 15:30:04;;;;;;;0.10;0.10;;;;;;;;;;4824100;29;20506;-80
2023/03/31 15:32:38;;;;;;;0.10;0.10;;;;;;;;;;4834750;29;20125;-80
2023/03/31 15:35:07;;;;;;;0.10;0.10;;;;;;;;;;4833959;24;20522;-80
2023/03/31 15:37:40;;;;;;;0.20;0.20;;;;;;;;;;4848942;29;20057;-82
2023/03/31 15:43:10;;;;;;;0.20;0.20;;;;;;;;;;4936336;23;20578;-80
2023/03/31 17:39:09;;;;;;;;;;;;;;;;;;;;;
2023/03/31 18:21:52;;;;;;;0.10;0.10;;;;;;;;;;5524145;23;20058;-79
2023/03/31 20:04:36;;;;;;;0.10;0.10;;;;;;;;;;5408393;23;20136;-79
